createdAt,value
2022-12-15T14:08:41.523Z,27.58
2022-12-15T14:09:41.350Z,27.58
2022-12-15T14:11:07.037Z,27.47
2022-12-15T14:12:01.588Z,27.41
2022-12-15T14:13:00.557Z,27.35
2022-12-15T14:14:00.497Z,27.31
2022-12-15T14:15:00.622Z,27.38
2022-12-15T14:16:00.580Z,27.41
2022-12-15T14:17:00.370Z,27.36
2022-12-15T14:18:00.337Z,27.40
2022-12-15T14:19:00.193Z,27.31
2022-12-15T14:20:00.161Z,27.24
2022-12-15T14:21:36.215Z,27.15
2022-12-15T14:22:36.180Z,26.98
2022-12-15T14:23:36.213Z,26.84
2022-12-15T14:24:39.088Z,26.70
2022-12-15T14:25:36.075Z,26.44
2022-12-15T14:26:36.052Z,26.19
2022-12-15T14:27:36.036Z,25.93
2022-12-15T14:28:36.109Z,25.80
2022-12-15T14:29:36.106Z,25.73
2022-12-15T14:30:36.081Z,25.71
2022-12-15T14:31:36.117Z,25.56
2022-12-15T14:32:36.084Z,25.39
2022-12-15T14:33:36.766Z,25.28
2022-12-15T14:34:36.091Z,25.15
2022-12-15T14:35:36.049Z,25.06
2022-12-15T14:36:36.013Z,25.02
2022-12-15T14:37:36.024Z,25.01
2022-12-15T14:38:36.032Z,25.06
2022-12-15T14:39:36.012Z,25.03
2022-12-15T14:40:36.031Z,25.15
2022-12-15T14:41:36.027Z,25.16
2022-12-15T14:43:36.563Z,25.14
2022-12-15T14:46:36.049Z,25.09
2022-12-15T14:49:36.130Z,24.86
2022-12-15T14:53:36.070Z,24.62
2022-12-15T14:54:36.150Z,24.56
2022-12-15T14:55:36.064Z,24.57
2022-12-15T14:56:36.072Z,24.46
2022-12-15T14:57:36.069Z,24.39
2022-12-15T14:58:36.677Z,24.28
2022-12-15T14:59:36.094Z,24.17
2022-12-15T15:00:36.131Z,24.14
2022-12-15T15:01:36.155Z,24.14
2022-12-15T15:02:36.285Z,24.11
2022-12-15T15:03:36.201Z,24.11
2022-12-15T15:04:36.151Z,24.14
2022-12-15T15:05:36.209Z,24.17
2022-12-15T15:06:36.199Z,24.70
2022-12-15T15:07:36.286Z,24.56
